sensor_id;sensor_type;location;lat;lon;timestamp;pressure;altitude;pressure_sealevel;temperature;humidity
22255;BME280;11296;42.684;23.322;2022-07-29T00:02:14;95402.91;;;21.17;100.00
22255;BME280;11296;42.684;23.322;2022-07-29T00:04:40;95390.59;;;20.98;100.00
22255;BME280;11296;42.684;23.322;2022-07-29T00:07:05;95386.00;;;20.93;100.00
22255;BME280;11296;42.684;23.322;2022-07-29T00:09:31;95392.94;;;21.07;100.00
22255;BME280;11296;42.684;23.322;2022-07-29T00:11:59;95395.25;;;20.90;100.00
22255;BME280;11296;42.684;23.322;2022-07-29T00:14:26;95407.78;;;21.11;100.00
22255;BME280;11296;42.684;23.322;2022-07-29T00:16:52;95412.81;;;21.20;100.00
22255;BME280;11296;42.684;23.322;2022-07-29T00:19:18;95379.81;;;21.05;100.00
22255;BME280;11296;42.684;23.322;2022-07-29T00:21:43;95370.50;;;20.95;100.00
22255;BME280;11296;42.684;23.322;2022-07-29T00:24:09;95374.13;;;20.90;100.00
22255;BME280;11296;42.684;23.322;2022-07-29T00:26:34;95364.22;;;20.87;100.00
22255;BME280;11296;42.684;23.322;2022-07-29T00:29:02;95384.75;;;21.07;100.00
22255;BME280;11296;42.684;23.322;2022-07-29T00:31:28;95370.50;;;20.95;100.00
22255;BME280;11296;42.684;23.322;2022-07-29T00:33:54;95343.38;;;20.84;100.00
22255;BME280;11296;42.684;23.322;2022-07-29T00:36:20;95358.97;;;20.76;100.00
22255;BME280;11296;42.684;23.322;2022-07-29T00:38:50;95413.66;;;21.15;100.00
22255;BME280;11296;42.684;23.322;2022-07-29T00:41:16;95416.63;;;21.04;100.00
22255;BME280;11296;42.684;23.322;2022-07-29T00:43:43;95409.06;;;21.10;100.00
22255;BME280;11296;42.684;23.322;2022-07-29T00:46:08;95372.63;;;20.89;100.00
22255;BME280;11296;42.684;23.322;2022-07-29T00:48:34;95381.25;;;20.93;100.00
22255;BME280;11296;42.684;23.322;2022-07-29T00:51:02;95387.66;;;20.83;100.00
22255;BME280;11296;42.684;23.322;2022-07-29T00:53:29;95391.91;;;20.84;100.00
22255;BME280;11296;42.684;23.322;2022-07-29T00:55:55;95410.16;;;20.62;100.00
22255;BME280;11296;42.684;23.322;2022-07-29T00:58:22;95425.63;;;20.73;100.00
22255;BME280;11296;42.684;23.322;2022-07-29T01:00:48;95371.03;;;20.28;100.00
22255;BME280;11296;42.684;23.322;2022-07-29T01:03:13;95434.25;;;20.64;100.00
22255;BME280;11296;42.684;23.322;2022-07-29T01:05:41;95402.75;;;20.31;100.00
22255;BME280;11296;42.684;23.322;2022-07-29T01:08:10;95412.97;;;20.31;100.00
22255;BME280;11296;42.684;23.322;2022-07-29T01:10:38;95360.31;;;19.98;100.00
22255;BME280;11296;42.684;23.322;2022-07-29T01:13:04;95396.44;;;20.23;100.00
22255;BME280;11296;42.684;23.322;2022-07-29T01:15:32;95394.25;;;20.22;100.00
22255;BME280;11296;42.684;23.322;2022-07-29T01:18:07;95388.78;;;20.22;100.00
22255;BME280;11296;42.684;23.322;2022-07-29T01:26:27;95388.88;;;20.29;100.00
22255;BME280;11296;42.684;23.322;2022-07-29T01:31:51;95398.03;;;20.32;100.00
22255;BME280;11296;42.684;23.322;2022-07-29T01:34:23;95363.06;;;20.12;100.00
22255;BME280;11296;42.684;23.322;2022-07-29T01:37:18;95382.69;;;20.29;100.00
22255;BME280;11296;42.684;23.322;2022-07-29T01:39:47;95390.44;;;20.25;100.00
22255;BME280;11296;42.684;23.322;2022-07-29T01:42:22;95375.16;;;20.16;100.00
22255;BME280;11296;42.684;23.322;2022-07-29T01:50:35;95391.44;;;20.09;100.00
22255;BME280;11296;42.684;23.322;2022-07-29T01:53:05;95387.22;;;20.08;100.00
22255;BME280;11296;42.684;23.322;2022-07-29T01:55:35;95395.41;;;20.08;100.00
22255;BME280;11296;42.684;23.322;2022-07-29T01:58:04;95388.03;;;20.03;100.00
22255;BME280;11296;42.684;23.322;2022-07-29T02:00:32;95386.41;;;20.13;100.00
22255;BME280;11296;42.684;23.322;2022-07-29T02:03:00;95375.63;;;19.88;100.00
22255;BME280;11296;42.684;23.322;2022-07-29T02:05:29;95391.94;;;20.07;100.00
22255;BME280;11296;42.684;23.322;2022-07-29T02:07:57;95375.34;;;20.05;100.00
22255;BME280;11296;42.684;23.322;2022-07-29T02:10:27;95383.31;;;20.22;100.00
22255;BME280;11296;42.684;23.322;2022-07-29T02:12:54;95384.38;;;20.32;100.00
22255;BME280;11296;42.684;23.322;2022-07-29T02:15:23;95383.00;;;20.38;100.00
22255;BME280;11296;42.684;23.322;2022-07-29T02:17:52;95369.53;;;20.27;100.00
22255;BME280;11296;42.684;23.322;2022-07-29T02:20:22;95383.53;;;20.37;100.00
22255;BME280;11296;42.684;23.322;2022-07-29T02:22:51;95379.13;;;20.34;100.00
22255;BME280;11296;42.684;23.322;2022-07-29T02:25:17;95361.72;;;20.18;100.00
22255;BME280;11296;42.684;23.322;2022-07-29T02:27:44;95364.50;;;20.31;100.00
22255;BME280;11296;42.684;23.322;2022-07-29T02:30:11;95370.28;;;20.28;100.00
22255;BME280;11296;42.684;23.322;2022-07-29T02:32:40;95378.28;;;20.26;100.00
22255;BME280;11296;42.684;23.322;2022-07-29T02:35:08;95349.25;;;20.23;100.00
22255;BME280;11296;42.684;23.322;2022-07-29T02:37:36;95367.75;;;20.30;100.00
22255;BME280;11296;42.684;23.322;2022-07-29T02:40:02;95363.22;;;20.19;100.00
22255;BME280;11296;42.684;23.322;2022-07-29T02:42:29;95350.09;;;20.18;100.00
22255;BME280;11296;42.684;23.322;2022-07-29T02:44:56;95357.16;;;20.26;100.00
22255;BME280;11296;42.684;23.322;2022-07-29T02:47:27;95359.34;;;20.28;100.00
22255;BME280;11296;42.684;23.322;2022-07-29T02:50:02;95360.09;;;20.28;100.00
22255;BME280;11296;42.684;23.322;2022-07-29T02:52:45;95352.84;;;20.31;100.00
22255;BME280;11296;42.684;23.322;2022-07-29T02:55:17;95355.38;;;20.29;100.00
22255;BME280;11296;42.684;23.322;2022-07-29T02:57:47;95350.38;;;20.14;100.00
22255;BME280;11296;42.684;23.322;2022-07-29T03:00:15;95345.22;;;20.11;100.00
22255;BME280;11296;42.684;23.322;2022-07-29T03:02:45;95361.66;;;20.24;100.00
22255;BME280;11296;42.684;23.322;2022-07-29T03:05:16;95355.47;;;20.23;100.00
22255;BME280;11296;42.684;23.322;2022-07-29T03:07:46;95345.28;;;20.24;100.00
22255;BME280;11296;42.684;23.322;2022-07-29T03:10:13;95341.72;;;19.97;100.00
22255;BME280;11296;42.684;23.322;2022-07-29T03:12:40;95365.59;;;20.10;100.00
22255;BME280;11296;42.684;23.322;2022-07-29T03:15:07;95364.75;;;20.02;100.00
22255;BME280;11296;42.684;23.322;2022-07-29T03:17:33;95356.34;;;20.00;100.00
22255;BME280;11296;42.684;23.322;2022-07-29T03:20:00;95335.69;;;19.85;100.00
22255;BME280;11296;42.684;23.322;2022-07-29T03:22:26;95311.28;;;19.61;100.00
22255;BME280;11296;42.684;23.322;2022-07-29T03:24:52;95340.38;;;19.72;100.00
22255;BME280;11296;42.684;23.322;2022-07-29T03:27:17;95334.88;;;19.59;100.00
22255;BME280;11296;42.684;23.322;2022-07-29T03:29:43;95341.25;;;19.48;100.00
22255;BME280;11296;42.684;23.322;2022-07-29T03:32:09;95379.97;;;19.78;100.00
22255;BME280;11296;42.684;23.322;2022-07-29T03:34:36;95318.63;;;19.35;100.00
22255;BME280;11296;42.684;23.322;2022-07-29T03:37:07;95356.13;;;19.66;100.00
22255;BME280;11296;42.684;23.322;2022-07-29T03:39:37;95318.84;;;19.37;100.00
22255;BME280;11296;42.684;23.322;2022-07-29T03:42:06;95352.59;;;19.52;100.00
22255;BME280;11296;42.684;23.322;2022-07-29T03:44:34;95325.94;;;19.45;100.00
22255;BME280;11296;42.684;23.322;2022-07-29T03:47:01;95370.56;;;19.79;100.00
22255;BME280;11296;42.684;23.322;2022-07-29T03:49:27;95320.38;;;19.51;100.00
22255;BME280;11296;42.684;23.322;2022-07-29T03:51:54;95359.00;;;19.73;100.00
22255;BME280;11296;42.684;23.322;2022-07-29T03:54:19;95328.72;;;19.58;100.00
22255;BME280;11296;42.684;23.322;2022-07-29T03:56:46;95354.75;;;19.91;100.00
22255;BME280;11296;42.684;23.322;2022-07-29T03:59:22;95337.16;;;19.73;100.00
22255;BME280;11296;42.684;23.322;2022-07-29T04:01:48;95364.31;;;19.98;100.00
22255;BME280;11296;42.684;23.322;2022-07-29T04:04:15;95363.88;;;19.93;100.00
22255;BME280;11296;42.684;23.322;2022-07-29T04:06:44;95345.81;;;19.90;100.00
22255;BME280;11296;42.684;23.322;2022-07-29T04:09:11;95382.25;;;20.25;100.00
22255;BME280;11296;42.684;23.322;2022-07-29T04:11:39;95340.59;;;20.06;100.00
22255;BME280;11296;42.684;23.322;2022-07-29T04:14:05;95342.56;;;20.05;100.00
22255;BME280;11296;42.684;23.322;2022-07-29T04:16:31;95366.06;;;20.27;100.00
22255;BME280;11296;42.684;23.322;2022-07-29T04:18:57;95369.91;;;20.50;100.00
22255;BME280;11296;42.684;23.322;2022-07-29T04:21:23;95339.41;;;20.33;100.00
22255;BME280;11296;42.684;23.322;2022-07-29T04:23:49;95387.56;;;20.62;100.00
22255;BME280;11296;42.684;23.322;2022-07-29T04:26:17;95381.88;;;20.73;100.00
22255;BME280;11296;42.684;23.322;2022-07-29T04:28:44;95347.09;;;20.60;100.00
22255;BME280;11296;42.684;23.322;2022-07-29T04:31:11;95329.63;;;20.63;100.00
22255;BME280;11296;42.684;23.322;2022-07-29T04:33:37;95337.00;;;20.68;100.00
22255;BME280;11296;42.684;23.322;2022-07-29T04:36:03;95344.75;;;20.78;100.00
22255;BME280;11296;42.684;23.322;2022-07-29T04:38:29;95377.81;;;21.06;100.00
22255;BME280;11296;42.684;23.322;2022-07-29T04:40:54;95369.69;;;21.00;100.00
22255;BME280;11296;42.684;23.322;2022-07-29T04:43:21;95375.28;;;21.08;100.00
22255;BME280;11296;42.684;23.322;2022-07-29T04:45:46;95348.63;;;20.95;100.00
22255;BME280;11296;42.684;23.322;2022-07-29T04:48:13;95366.91;;;21.26;100.00
22255;BME280;11296;42.684;23.322;2022-07-29T04:50:39;95376.50;;;21.20;100.00
22255;BME280;11296;42.684;23.322;2022-07-29T04:53:06;95332.88;;;21.01;100.00
22255;BME280;11296;42.684;23.322;2022-07-29T04:55:32;95352.63;;;21.20;100.00
22255;BME280;11296;42.684;23.322;2022-07-29T04:57:57;95386.44;;;21.43;100.00
22255;BME280;11296;42.684;23.322;2022-07-29T05:00:24;95353.03;;;21.24;100.00
22255;BME280;11296;42.684;23.322;2022-07-29T05:02:50;95379.69;;;21.58;100.00
22255;BME280;11296;42.684;23.322;2022-07-29T05:05:16;95371.66;;;21.60;100.00
22255;BME280;11296;42.684;23.322;2022-07-29T05:07:41;95369.13;;;21.62;100.00
22255;BME280;11296;42.684;23.322;2022-07-29T05:10:08;95377.63;;;21.71;100.00
22255;BME280;11296;42.684;23.322;2022-07-29T05:12:33;95396.53;;;21.95;100.00
22255;BME280;11296;42.684;23.322;2022-07-29T05:14:59;95350.84;;;21.77;100.00
22255;BME280;11296;42.684;23.322;2022-07-29T05:17:25;95385.50;;;21.88;100.00
22255;BME280;11296;42.684;23.322;2022-07-29T05:19:54;95357.63;;;21.76;100.00
22255;BME280;11296;42.684;23.322;2022-07-29T05:22:23;95390.03;;;22.06;100.00
22255;BME280;11296;42.684;23.322;2022-07-29T05:24:52;95376.34;;;22.06;100.00
22255;BME280;11296;42.684;23.322;2022-07-29T05:27:18;95387.03;;;22.17;100.00
22255;BME280;11296;42.684;23.322;2022-07-29T05:29:44;95390.97;;;22.08;100.00
22255;BME280;11296;42.684;23.322;2022-07-29T05:32:09;95384.69;;;22.21;100.00
22255;BME280;11296;42.684;23.322;2022-07-29T05:34:35;95337.53;;;21.94;100.00
22255;BME280;11296;42.684;23.322;2022-07-29T05:37:01;95388.84;;;22.35;100.00
22255;BME280;11296;42.684;23.322;2022-07-29T05:39:27;95370.91;;;22.34;100.00
22255;BME280;11296;42.684;23.322;2022-07-29T05:41:53;95371.66;;;22.35;100.00
22255;BME280;11296;42.684;23.322;2022-07-29T05:44:22;95361.44;;;22.35;100.00
22255;BME280;11296;42.684;23.322;2022-07-29T05:46:47;95375.81;;;22.56;100.00
22255;BME280;11296;42.684;23.322;2022-07-29T05:49:16;95361.22;;;22.33;100.00
22255;BME280;11296;42.684;23.322;2022-07-29T05:51:45;95373.00;;;22.69;100.00
22255;BME280;11296;42.684;23.322;2022-07-29T05:54:11;95355.03;;;22.61;100.00
22255;BME280;11296;42.684;23.322;2022-07-29T05:56:38;95365.41;;;22.83;100.00
22255;BME280;11296;42.684;23.322;2022-07-29T05:59:06;95344.72;;;22.54;100.00
22255;BME280;11296;42.684;23.322;2022-07-29T06:01:38;95339.38;;;22.69;100.00
22255;BME280;11296;42.684;23.322;2022-07-29T06:04:05;95351.16;;;22.84;100.00
22255;BME280;11296;42.684;23.322;2022-07-29T06:06:33;95360.94;;;23.01;100.00
22255;BME280;11296;42.684;23.322;2022-07-29T06:09:02;95354.88;;;22.95;100.00
22255;BME280;11296;42.684;23.322;2022-07-29T06:11:30;95349.78;;;22.99;100.00
22255;BME280;11296;42.684;23.322;2022-07-29T06:14:02;95350.56;;;23.14;100.00
22255;BME280;11296;42.684;23.322;2022-07-29T06:16:36;95343.28;;;23.17;100.00
22255;BME280;11296;42.684;23.322;2022-07-29T06:19:02;95360.81;;;23.14;100.00
22255;BME280;11296;42.684;23.322;2022-07-29T06:21:44;95348.00;;;23.09;100.00
22255;BME280;11296;42.684;23.322;2022-07-29T06:24:30;95374.47;;;23.42;100.00
22255;BME280;11296;42.684;23.322;2022-07-29T06:26:58;95346.66;;;23.38;100.00
22255;BME280;11296;42.684;23.322;2022-07-29T06:29:29;95367.63;;;23.64;100.00
22255;BME280;11296;42.684;23.322;2022-07-29T06:31:56;95375.16;;;23.78;100.00
22255;BME280;11296;42.684;23.322;2022-07-29T06:34:22;95355.19;;;23.70;100.00
22255;BME280;11296;42.684;23.322;2022-07-29T06:36:47;95357.00;;;23.75;100.00
22255;BME280;11296;42.684;23.322;2022-07-29T06:39:14;95388.56;;;24.04;100.00
22255;BME280;11296;42.684;23.322;2022-07-29T06:41:46;95355.56;;;23.89;100.00
22255;BME280;11296;42.684;23.322;2022-07-29T06:44:13;95377.97;;;24.08;100.00
22255;BME280;11296;42.684;23.322;2022-07-29T06:46:39;95371.00;;;24.07;100.00
22255;BME280;11296;42.684;23.322;2022-07-29T06:49:05;95348.44;;;23.94;100.00
22255;BME280;11296;42.684;23.322;2022-07-29T06:51:31;95369.00;;;24.08;100.00
22255;BME280;11296;42.684;23.322;2022-07-29T06:53:57;95373.22;;;24.24;100.00
22255;BME280;11296;42.684;23.322;2022-07-29T06:56:23;95345.91;;;24.11;100.00
22255;BME280;11296;42.684;23.322;2022-07-29T06:58:49;95373.59;;;24.43;100.00
22255;BME280;11296;42.684;23.322;2022-07-29T07:01:15;95358.19;;;24.40;100.00
22255;BME280;11296;42.684;23.322;2022-07-29T07:03:41;95362.78;;;24.45;100.00
22255;BME280;11296;42.684;23.322;2022-07-29T07:06:07;95330.69;;;24.33;100.00
22255;BME280;11296;42.684;23.322;2022-07-29T07:08:33;95352.88;;;24.50;100.00
22255;BME280;11296;42.684;23.322;2022-07-29T07:10:59;95375.56;;;24.73;100.00
22255;BME280;11296;42.684;23.322;2022-07-29T07:13:25;95355.03;;;24.74;100.00
22255;BME280;11296;42.684;23.322;2022-07-29T07:15:51;95351.53;;;24.81;100.00
22255;BME280;11296;42.684;23.322;2022-07-29T07:18:18;95343.97;;;25.04;100.00
22255;BME280;11296;42.684;23.322;2022-07-29T07:20:45;95333.53;;;24.87;100.00
22255;BME280;11296;42.684;23.322;2022-07-29T07:23:12;95339.91;;;25.05;100.00
22255;BME280;11296;42.684;23.322;2022-07-29T07:25:38;95361.69;;;25.26;100.00
22255;BME280;11296;42.684;23.322;2022-07-29T07:28:04;95346.81;;;25.21;100.00
22255;BME280;11296;42.684;23.322;2022-07-29T07:30:29;95353.22;;;25.31;100.00
22255;BME280;11296;42.684;23.322;2022-07-29T07:32:59;95324.28;;;25.15;100.00
22255;BME280;11296;42.684;23.322;2022-07-29T07:35:25;95371.19;;;25.40;100.00
22255;BME280;11296;42.684;23.322;2022-07-29T07:37:55;95376.41;;;25.60;100.00
22255;BME280;11296;42.684;23.322;2022-07-29T07:40:21;95353.53;;;25.50;100.00
22255;BME280;11296;42.684;23.322;2022-07-29T07:42:46;95352.38;;;25.53;100.00
22255;BME280;11296;42.684;23.322;2022-07-29T07:45:12;95344.09;;;25.61;100.00
22255;BME280;11296;42.684;23.322;2022-07-29T07:47:38;95348.59;;;25.73;100.00
22255;BME280;11296;42.684;23.322;2022-07-29T07:50:06;95333.25;;;25.63;100.00
22255;BME280;11296;42.684;23.322;2022-07-29T07:52:32;95328.81;;;25.67;100.00
22255;BME280;11296;42.684;23.322;2022-07-29T07:54:58;95347.69;;;26.03;100.00
22255;BME280;11296;42.684;23.322;2022-07-29T07:57:23;95353.44;;;26.22;100.00
22255;BME280;11296;42.684;23.322;2022-07-29T07:59:49;95349.72;;;26.27;100.00
22255;BME280;11296;42.684;23.322;2022-07-29T08:02:14;95341.66;;;26.22;100.00
22255;BME280;11296;42.684;23.322;2022-07-29T08:04:40;95372.94;;;26.41;100.00
22255;BME280;11296;42.684;23.322;2022-07-29T08:07:07;95340.88;;;26.29;100.00
22255;BME280;11296;42.684;23.322;2022-07-29T08:09:34;95319.16;;;26.33;100.00
22255;BME280;11296;42.684;23.322;2022-07-29T08:12:00;95352.69;;;26.46;100.00
22255;BME280;11296;42.684;23.322;2022-07-29T08:14:31;95330.91;;;26.33;100.00
22255;BME280;11296;42.684;23.322;2022-07-29T08:16:56;95352.63;;;26.54;100.00
22255;BME280;11296;42.684;23.322;2022-07-29T08:19:22;95351.91;;;26.71;100.00
22255;BME280;11296;42.684;23.322;2022-07-29T08:21:48;95341.44;;;26.69;99.85
22255;BME280;11296;42.684;23.322;2022-07-29T08:24:13;95343.75;;;26.80;99.01
22255;BME280;11296;42.684;23.322;2022-07-29T08:26:57;95329.78;;;26.78;97.12
22255;BME280;11296;42.684;23.322;2022-07-29T08:29:23;95369.06;;;27.03;95.84
22255;BME280;11296;42.684;23.322;2022-07-29T08:31:48;95367.47;;;27.17;93.74
22255;BME280;11296;42.684;23.322;2022-07-29T08:34:14;95326.84;;;27.10;92.89
22255;BME280;11296;42.684;23.322;2022-07-29T08:36:40;95351.28;;;27.31;91.65
22255;BME280;11296;42.684;23.322;2022-07-29T08:39:07;95336.16;;;27.32;87.40
22255;BME280;11296;42.684;23.322;2022-07-29T08:41:32;95354.63;;;27.47;87.46
22255;BME280;11296;42.684;23.322;2022-07-29T08:43:58;95346.38;;;27.56;84.77
22255;BME280;11296;42.684;23.322;2022-07-29T08:46:24;95327.88;;;27.49;83.41
22255;BME280;11296;42.684;23.322;2022-07-29T08:48:50;95338.00;;;27.64;82.67
22255;BME280;11296;42.684;23.322;2022-07-29T08:51:18;95324.41;;;27.58;79.23
22255;BME280;11296;42.684;23.322;2022-07-29T08:53:46;95331.81;;;27.82;78.37
22255;BME280;11296;42.684;23.322;2022-07-29T08:56:16;95317.16;;;27.89;76.36
22255;BME280;11296;42.684;23.322;2022-07-29T08:58:44;95330.72;;;27.95;78.97
22255;BME280;11296;42.684;23.322;2022-07-29T09:01:10;95343.50;;;28.17;74.82
22255;BME280;11296;42.684;23.322;2022-07-29T09:03:37;95334.47;;;28.17;73.01
22255;BME280;11296;42.684;23.322;2022-07-29T09:06:05;95313.91;;;28.10;70.03
22255;BME280;11296;42.684;23.322;2022-07-29T09:08:32;95337.28;;;28.26;73.21
22255;BME280;11296;42.684;23.322;2022-07-29T09:10:58;95316.19;;;28.40;75.19
22255;BME280;11296;42.684;23.322;2022-07-29T09:13:26;95302.38;;;28.50;73.54
22255;BME280;11296;42.684;23.322;2022-07-29T09:15:52;95344.59;;;28.41;70.03
22255;BME280;11296;42.684;23.322;2022-07-29T09:21:00;95322.78;;;28.54;67.85
22255;BME280;11296;42.684;23.322;2022-07-29T09:26:28;95354.19;;;29.05;65.11
22255;BME280;11296;42.684;23.322;2022-07-29T09:28:54;95311.16;;;29.04;66.50
22255;BME280;11296;42.684;23.322;2022-07-29T09:31:31;95329.72;;;29.20;62.35
22255;BME280;11296;42.684;23.322;2022-07-29T09:33:57;95316.84;;;29.34;63.38
22255;BME280;11296;42.684;23.322;2022-07-29T09:36:23;95346.72;;;29.65;61.48
22255;BME280;11296;42.684;23.322;2022-07-29T09:38:59;95312.47;;;29.41;59.63
22255;BME280;11296;42.684;23.322;2022-07-29T09:41:29;95309.81;;;29.53;61.11
22255;BME280;11296;42.684;23.322;2022-07-29T09:43:56;95328.88;;;29.77;60.04
22255;BME280;11296;42.684;23.322;2022-07-29T09:46:23;95312.00;;;29.54;59.94
22255;BME280;11296;42.684;23.322;2022-07-29T09:49:09;95338.34;;;29.93;62.53
22255;BME280;11296;42.684;23.322;2022-07-29T09:51:37;95312.88;;;30.07;62.29
22255;BME280;11296;42.684;23.322;2022-07-29T09:54:25;95295.16;;;29.81;58.81
22255;BME280;11296;42.684;23.322;2022-07-29T09:56:52;95292.69;;;29.75;60.80
22255;BME280;11296;42.684;23.322;2022-07-29T09:59:19;95289.44;;;29.88;61.15
22255;BME280;11296;42.684;23.322;2022-07-29T10:01:52;95281.66;;;29.96;58.14
22255;BME280;11296;42.684;23.322;2022-07-29T10:04:18;95255.75;;;30.13;58.01
22255;BME280;11296;42.684;23.322;2022-07-29T10:06:58;95302.13;;;30.53;57.86
22255;BME280;11296;42.684;23.322;2022-07-29T10:09:24;95297.38;;;30.65;56.70
22255;BME280;11296;42.684;23.322;2022-07-29T10:14:30;95274.16;;;30.60;58.58
22255;BME280;11296;42.684;23.322;2022-07-29T10:16:57;95286.25;;;30.86;58.56
22255;BME280;11296;42.684;23.322;2022-07-29T10:19:23;95259.78;;;30.85;56.85
22255;BME280;11296;42.684;23.322;2022-07-29T10:21:49;95292.72;;;31.00;56.42
22255;BME280;11296;42.684;23.322;2022-07-29T10:24:16;95253.34;;;30.71;55.75
22255;BME280;11296;42.684;23.322;2022-07-29T10:26:42;95248.69;;;30.43;52.49
22255;BME280;11296;42.684;23.322;2022-07-29T10:29:08;95278.38;;;30.83;55.70
22255;BME280;11296;42.684;23.322;2022-07-29T10:31:46;95252.38;;;30.99;54.48
22255;BME280;11296;42.684;23.322;2022-07-29T10:34:20;95226.91;;;31.03;52.96
22255;BME280;11296;42.684;23.322;2022-07-29T10:37:45;95253.03;;;31.54;51.50
22255;BME280;11296;42.684;23.322;2022-07-29T10:43:27;95229.38;;;31.31;51.23
22255;BME280;11296;42.684;23.322;2022-07-29T10:45:58;95262.97;;;31.57;50.05
22255;BME280;11296;42.684;23.322;2022-07-29T10:48:24;95235.38;;;31.49;48.74
22255;BME280;11296;42.684;23.322;2022-07-29T10:50:58;95221.09;;;31.43;47.06
22255;BME280;11296;42.684;23.322;2022-07-29T10:53:51;95266.00;;;31.84;48.37
22255;BME280;11296;42.684;23.322;2022-07-29T10:56:31;95246.78;;;31.88;48.12
22255;BME280;11296;42.684;23.322;2022-07-29T11:01:47;95203.59;;;31.98;45.96
22255;BME280;11296;42.684;23.322;2022-07-29T11:04:13;95241.06;;;32.32;46.05
22255;BME280;11296;42.684;23.322;2022-07-29T11:09:29;95216.47;;;32.40;45.53
22255;BME280;11296;42.684;23.322;2022-07-29T11:11:58;95213.06;;;32.53;46.14
22255;BME280;11296;42.684;23.322;2022-07-29T11:17:18;95213.22;;;32.32;45.86
22255;BME280;11296;42.684;23.322;2022-07-29T11:19:44;95222.06;;;32.52;44.93
22255;BME280;11296;42.684;23.322;2022-07-29T11:22:10;95191.81;;;32.71;44.85
22255;BME280;11296;42.684;23.322;2022-07-29T11:24:37;95205.28;;;32.63;44.08
22255;BME280;11296;42.684;23.322;2022-07-29T11:27:11;95191.72;;;32.69;44.41
22255;BME280;11296;42.684;23.322;2022-07-29T11:29:57;95188.19;;;32.69;44.48
22255;BME280;11296;42.684;23.322;2022-07-29T11:32:36;95227.91;;;33.45;43.46
22255;BME280;11296;42.684;23.322;2022-07-29T11:37:38;95197.28;;;33.20;42.69
22255;BME280;11296;42.684;23.322;2022-07-29T11:45:01;95194.84;;;33.01;42.88
22255;BME280;11296;42.684;23.322;2022-07-29T11:47:28;95182.44;;;32.78;42.74
22255;BME280;11296;42.684;23.322;2022-07-29T11:49:56;95182.16;;;32.86;44.53
22255;BME280;11296;42.684;23.322;2022-07-29T11:52:23;95191.19;;;33.23;43.51
22255;BME280;11296;42.684;23.322;2022-07-29T11:54:50;95211.19;;;33.45;42.07
22255;BME280;11296;42.684;23.322;2022-07-29T11:57:17;95205.75;;;33.22;42.27
22255;BME280;11296;42.684;23.322;2022-07-29T11:59:45;95217.75;;;33.38;41.61
22255;BME280;11296;42.684;23.322;2022-07-29T12:02:12;95179.53;;;33.27;40.66
22255;BME280;11296;42.684;23.322;2022-07-29T12:04:49;95195.34;;;33.36;41.61
22255;BME280;11296;42.684;23.322;2022-07-29T12:07:15;95175.03;;;33.47;40.82
22255;BME280;11296;42.684;23.322;2022-07-29T12:09:52;95202.19;;;33.33;40.99
22255;BME280;11296;42.684;23.322;2022-07-29T12:12:19;95169.34;;;32.81;40.13
22255;BME280;11296;42.684;23.322;2022-07-29T12:14:44;95177.16;;;33.21;39.67
22255;BME280;11296;42.684;23.322;2022-07-29T12:17:33;95194.19;;;33.93;39.83
22255;BME280;11296;42.684;23.322;2022-07-29T12:20:02;95176.94;;;33.83;38.96
22255;BME280;11296;42.684;23.322;2022-07-29T12:22:33;95186.22;;;34.42;38.57
22255;BME280;11296;42.684;23.322;2022-07-29T12:25:04;95177.00;;;34.53;38.37
22255;BME280;11296;42.684;23.322;2022-07-29T12:27:31;95203.56;;;35.26;36.82
22255;BME280;11296;42.684;23.322;2022-07-29T12:30:06;95158.47;;;35.34;36.47
22255;BME280;11296;42.684;23.322;2022-07-29T12:32:43;95200.34;;;35.79;36.81
22255;BME280;11296;42.684;23.322;2022-07-29T12:35:12;95183.44;;;36.08;35.63
22255;BME280;11296;42.684;23.322;2022-07-29T12:37:40;95185.34;;;36.52;34.45
22255;BME280;11296;42.684;23.322;2022-07-29T12:40:09;95161.31;;;36.65;33.63
22255;BME280;11296;42.684;23.322;2022-07-29T12:42:35;95153.13;;;36.20;34.39
22255;BME280;11296;42.684;23.322;2022-07-29T12:45:02;95142.34;;;36.98;33.01
22255;BME280;11296;42.684;23.322;2022-07-29T12:47:28;95180.53;;;38.21;32.05
22255;BME280;11296;42.684;23.322;2022-07-29T12:50:11;95154.22;;;38.74;30.17
22255;BME280;11296;42.684;23.322;2022-07-29T12:52:37;95180.06;;;40.08;29.76
22255;BME280;11296;42.684;23.322;2022-07-29T12:55:04;95161.13;;;40.66;27.70
22255;BME280;11296;42.684;23.322;2022-07-29T12:57:30;95165.22;;;40.33;27.19
22255;BME280;11296;42.684;23.322;2022-07-29T13:00:08;95137.13;;;41.24;25.73
22255;BME280;11296;42.684;23.322;2022-07-29T13:02:37;95165.31;;;40.10;26.76
22255;BME280;11296;42.684;23.322;2022-07-29T13:05:04;95121.63;;;39.59;27.31
22255;BME280;11296;42.684;23.322;2022-07-29T13:07:32;95145.69;;;40.14;26.51
22255;BME280;11296;42.684;23.322;2022-07-29T13:10:15;95127.69;;;41.46;24.74
22255;BME280;11296;42.684;23.322;2022-07-29T13:13:09;95155.19;;;41.77;25.86
22255;BME280;11296;42.684;23.322;2022-07-29T13:15:41;95145.50;;;41.54;24.68
22255;BME280;11296;42.684;23.322;2022-07-29T13:18:29;95151.50;;;42.46;23.79
22255;BME280;11296;42.684;23.322;2022-07-29T13:20:56;95145.22;;;42.10;24.06
22255;BME280;11296;42.684;23.322;2022-07-29T13:23:22;95143.16;;;41.76;24.40
22255;BME280;11296;42.684;23.322;2022-07-29T13:25:47;95144.50;;;42.09;24.60
22255;BME280;11296;42.684;23.322;2022-07-29T13:28:13;95143.03;;;43.33;22.75
22255;BME280;11296;42.684;23.322;2022-07-29T13:30:42;95128.75;;;43.81;22.57
22255;BME280;11296;42.684;23.322;2022-07-29T13:33:08;95137.72;;;43.62;22.66